sensor_id;sensor_type;location;lat;lon;timestamp;P1;durP1;ratioP1;P2;durP2;ratioP2
62790;SDS011;48830;53.426;10.300;2023-06-01T00:00:32;17.50;;;9.05;;
62790;SDS011;48830;53.426;10.300;2023-06-01T00:02:58;19.42;;;9.05;;
62790;SDS011;48830;53.426;10.300;2023-06-01T00:05:23;16.08;;;8.95;;
62790;SDS011;48830;53.426;10.300;2023-06-01T00:07:49;16.35;;;9.60;;
62790;SDS011;48830;53.426;10.300;2023-06-01T00:10:14;17.13;;;9.32;;
62790;SDS011;48830;53.426;10.300;2023-06-01T00:12:40;16.70;;;9.60;;
62790;SDS011;48830;53.426;10.300;2023-06-01T00:15:05;19.38;;;10.35;;
62790;SDS011;48830;53.426;10.300;2023-06-01T00:17:32;16.42;;;9.98;;
62790;SDS011;48830;53.426;10.300;2023-06-01T00:19:57;17.27;;;10.00;;
62790;SDS011;48830;53.426;10.300;2023-06-01T00:22:26;20.33;;;9.23;;
62790;SDS011;48830;53.426;10.300;2023-06-01T00:24:54;18.75;;;9.32;;
62790;SDS011;48830;53.426;10.300;2023-06-01T00:27:20;16.83;;;9.75;;
62790;SDS011;48830;53.426;10.300;2023-06-01T00:29:46;16.77;;;10.23;;
62790;SDS011;48830;53.426;10.300;2023-06-01T00:32:12;16.30;;;9.27;;
62790;SDS011;48830;53.426;10.300;2023-06-01T00:34:37;18.02;;;8.90;;
62790;SDS011;48830;53.426;10.300;2023-06-01T00:37:03;19.80;;;8.55;;
62790;SDS011;48830;53.426;10.300;2023-06-01T00:39:28;16.30;;;8.82;;
62790;SDS011;48830;53.426;10.300;2023-06-01T00:41:54;14.45;;;8.10;;
62790;SDS011;48830;53.426;10.300;2023-06-01T00:44:19;17.33;;;8.25;;
62790;SDS011;48830;53.426;10.300;2023-06-01T00:46:45;11.75;;;8.05;;
62790;SDS011;48830;53.426;10.300;2023-06-01T00:49:10;15.15;;;8.90;;
62790;SDS011;48830;53.426;10.300;2023-06-01T00:51:36;12.60;;;8.45;;
62790;SDS011;48830;53.426;10.300;2023-06-01T00:54:02;13.73;;;8.15;;
62790;SDS011;48830;53.426;10.300;2023-06-01T00:56:27;11.70;;;8.15;;
62790;SDS011;48830;53.426;10.300;2023-06-01T00:58:53;15.45;;;8.45;;
62790;SDS011;48830;53.426;10.300;2023-06-01T01:01:19;20.02;;;9.20;;
62790;SDS011;48830;53.426;10.300;2023-06-01T01:03:48;16.08;;;9.40;;
62790;SDS011;48830;53.426;10.300;2023-06-01T01:09:54;18.90;;;9.50;;
62790;SDS011;48830;53.426;10.300;2023-06-01T01:15:32;12.07;;;8.35;;
62790;SDS011;48830;53.426;10.300;2023-06-01T01:18:03;14.85;;;8.65;;
62790;SDS011;48830;53.426;10.300;2023-06-01T01:20:38;17.50;;;9.27;;
62790;SDS011;48830;53.426;10.300;2023-06-01T01:23:20;15.48;;;8.85;;
62790;SDS011;48830;53.426;10.300;2023-06-01T01:28:41;14.88;;;7.30;;
62790;SDS011;48830;53.426;10.300;2023-06-01T01:31:08;13.77;;;7.57;;
62790;SDS011;48830;53.426;10.300;2023-06-01T01:33:37;14.10;;;7.57;;
62790;SDS011;48830;53.426;10.300;2023-06-01T01:36:03;16.48;;;7.30;;
62790;SDS011;48830;53.426;10.300;2023-06-01T01:38:33;13.00;;;6.88;;
62790;SDS011;48830;53.426;10.300;2023-06-01T01:40:59;15.13;;;7.20;;
62790;SDS011;48830;53.426;10.300;2023-06-01T01:43:25;15.38;;;6.70;;
62790;SDS011;48830;53.426;10.300;2023-06-01T01:45:54;10.77;;;7.07;;
62790;SDS011;48830;53.426;10.300;2023-06-01T01:48:43;14.27;;;6.53;;
62790;SDS011;48830;53.426;10.300;2023-06-01T01:51:40;12.13;;;6.28;;
62790;SDS011;48830;53.426;10.300;2023-06-01T01:54:14;15.27;;;6.15;;
62790;SDS011;48830;53.426;10.300;2023-06-01T01:56:40;9.57;;;5.57;;
62790;SDS011;48830;53.426;10.300;2023-06-01T01:59:07;10.95;;;5.88;;
62790;SDS011;48830;53.426;10.300;2023-06-01T02:01:34;12.80;;;5.45;;
62790;SDS011;48830;53.426;10.300;2023-06-01T02:04:01;13.82;;;5.70;;
62790;SDS011;48830;53.426;10.300;2023-06-01T02:06:28;13.10;;;5.75;;
62790;SDS011;48830;53.426;10.300;2023-06-01T02:08:53;10.93;;;5.53;;
62790;SDS011;48830;53.426;10.300;2023-06-01T02:11:20;13.23;;;6.53;;
62790;SDS011;48830;53.426;10.300;2023-06-01T02:13:46;16.58;;;6.45;;
62790;SDS011;48830;53.426;10.300;2023-06-01T02:16:12;16.52;;;6.90;;
62790;SDS011;48830;53.426;10.300;2023-06-01T02:18:38;13.32;;;6.50;;
62790;SDS011;48830;53.426;10.300;2023-06-01T02:21:04;11.50;;;5.40;;
62790;SDS011;48830;53.426;10.300;2023-06-01T02:23:30;14.85;;;5.18;;
62790;SDS011;48830;53.426;10.300;2023-06-01T02:25:56;13.13;;;5.30;;
62790;SDS011;48830;53.426;10.300;2023-06-01T02:28:21;10.93;;;5.03;;
62790;SDS011;48830;53.426;10.300;2023-06-01T02:30:47;11.43;;;4.90;;
62790;SDS011;48830;53.426;10.300;2023-06-01T02:33:12;12.75;;;5.88;;
62790;SDS011;48830;53.426;10.300;2023-06-01T02:35:38;10.77;;;4.82;;
62790;SDS011;48830;53.426;10.300;2023-06-01T02:38:04;10.40;;;5.43;;
62790;SDS011;48830;53.426;10.300;2023-06-01T02:40:31;12.90;;;5.30;;
62790;SDS011;48830;53.426;10.300;2023-06-01T02:42:56;12.93;;;5.20;;
62790;SDS011;48830;53.426;10.300;2023-06-01T02:45:22;11.13;;;5.38;;
62790;SDS011;48830;53.426;10.300;2023-06-01T02:47:47;14.10;;;5.85;;
62790;SDS011;48830;53.426;10.300;2023-06-01T02:50:13;13.90;;;5.30;;
62790;SDS011;48830;53.426;10.300;2023-06-01T02:52:43;11.73;;;5.45;;
62790;SDS011;48830;53.426;10.300;2023-06-01T02:55:09;12.57;;;5.55;;
62790;SDS011;48830;53.426;10.300;2023-06-01T02:57:55;11.98;;;5.40;;
62790;SDS011;48830;53.426;10.300;2023-06-01T03:00:20;13.98;;;5.95;;
62790;SDS011;48830;53.426;10.300;2023-06-01T03:02:47;13.15;;;5.50;;
62790;SDS011;48830;53.426;10.300;2023-06-01T03:05:13;17.42;;;6.88;;
62790;SDS011;48830;53.426;10.300;2023-06-01T03:07:40;16.98;;;8.02;;
62790;SDS011;48830;53.426;10.300;2023-06-01T03:10:12;11.45;;;6.55;;
62790;SDS011;48830;53.426;10.300;2023-06-01T03:12:49;16.98;;;8.23;;
62790;SDS011;48830;53.426;10.300;2023-06-01T03:15:15;12.35;;;6.18;;
62790;SDS011;48830;53.426;10.300;2023-06-01T03:17:41;12.27;;;5.60;;
62790;SDS011;48830;53.426;10.300;2023-06-01T03:20:07;14.82;;;5.88;;
62790;SDS011;48830;53.426;10.300;2023-06-01T03:22:40;14.60;;;5.32;;
62790;SDS011;48830;53.426;10.300;2023-06-01T03:25:10;11.35;;;4.78;;
62790;SDS011;48830;53.426;10.300;2023-06-01T03:27:37;14.10;;;5.00;;
62790;SDS011;48830;53.426;10.300;2023-06-01T03:30:03;11.13;;;4.88;;
62790;SDS011;48830;53.426;10.300;2023-06-01T03:32:35;15.90;;;5.47;;
62790;SDS011;48830;53.426;10.300;2023-06-01T03:35:02;15.48;;;6.47;;
62790;SDS011;48830;53.426;10.300;2023-06-01T03:37:28;14.38;;;6.60;;
62790;SDS011;48830;53.426;10.300;2023-06-01T03:39:54;14.07;;;5.57;;
62790;SDS011;48830;53.426;10.300;2023-06-01T03:42:22;14.05;;;5.28;;
62790;SDS011;48830;53.426;10.300;2023-06-01T03:44:47;15.35;;;5.57;;
62790;SDS011;48830;53.426;10.300;2023-06-01T03:47:13;14.15;;;5.35;;
62790;SDS011;48830;53.426;10.300;2023-06-01T03:49:39;15.32;;;6.57;;
62790;SDS011;48830;53.426;10.300;2023-06-01T03:52:08;14.38;;;5.72;;
62790;SDS011;48830;53.426;10.300;2023-06-01T03:54:35;13.55;;;5.53;;
62790;SDS011;48830;53.426;10.300;2023-06-01T03:57:04;11.90;;;5.15;;
62790;SDS011;48830;53.426;10.300;2023-06-01T03:59:30;11.00;;;4.90;;
62790;SDS011;48830;53.426;10.300;2023-06-01T04:01:56;14.13;;;5.60;;
62790;SDS011;48830;53.426;10.300;2023-06-01T04:04:22;15.00;;;4.82;;
62790;SDS011;48830;53.426;10.300;2023-06-01T04:06:53;12.88;;;5.38;;
62790;SDS011;48830;53.426;10.300;2023-06-01T04:09:18;11.85;;;5.05;;
62790;SDS011;48830;53.426;10.300;2023-06-01T04:11:44;13.70;;;5.00;;
62790;SDS011;48830;53.426;10.300;2023-06-01T04:14:09;11.98;;;5.05;;
62790;SDS011;48830;53.426;10.300;2023-06-01T04:16:35;14.93;;;5.50;;
62790;SDS011;48830;53.426;10.300;2023-06-01T04:19:01;12.40;;;5.03;;
62790;SDS011;48830;53.426;10.300;2023-06-01T04:21:30;13.10;;;4.90;;
62790;SDS011;48830;53.426;10.300;2023-06-01T04:23:57;13.20;;;5.18;;
62790;SDS011;48830;53.426;10.300;2023-06-01T04:26:22;11.57;;;5.20;;
62790;SDS011;48830;53.426;10.300;2023-06-01T04:28:50;12.80;;;4.97;;
62790;SDS011;48830;53.426;10.300;2023-06-01T04:31:16;15.10;;;5.05;;
62790;SDS011;48830;53.426;10.300;2023-06-01T04:33:46;14.73;;;5.63;;
62790;SDS011;48830;53.426;10.300;2023-06-01T04:36:19;15.68;;;6.28;;
62790;SDS011;48830;53.426;10.300;2023-06-01T04:38:51;13.88;;;5.95;;
62790;SDS011;48830;53.426;10.300;2023-06-01T04:41:22;14.48;;;6.03;;
62790;SDS011;48830;53.426;10.300;2023-06-01T04:43:54;14.55;;;5.57;;
62790;SDS011;48830;53.426;10.300;2023-06-01T04:46:22;11.77;;;5.03;;
62790;SDS011;48830;53.426;10.300;2023-06-01T04:48:51;15.95;;;6.45;;
62790;SDS011;48830;53.426;10.300;2023-06-01T04:51:18;15.32;;;6.60;;
62790;SDS011;48830;53.426;10.300;2023-06-01T04:53:51;13.65;;;5.05;;
62790;SDS011;48830;53.426;10.300;2023-06-01T04:56:18;13.60;;;5.30;;
62790;SDS011;48830;53.426;10.300;2023-06-01T04:58:46;16.40;;;6.07;;
62790;SDS011;48830;53.426;10.300;2023-06-01T05:01:13;12.55;;;6.05;;
62790;SDS011;48830;53.426;10.300;2023-06-01T05:03:44;15.80;;;5.30;;
62790;SDS011;48830;53.426;10.300;2023-06-01T05:06:11;12.52;;;4.95;;
62790;SDS011;48830;53.426;10.300;2023-06-01T05:08:39;13.30;;;5.55;;
62790;SDS011;48830;53.426;10.300;2023-06-01T05:11:06;14.07;;;5.18;;
62790;SDS011;48830;53.426;10.300;2023-06-01T05:13:35;12.75;;;5.22;;
62790;SDS011;48830;53.426;10.300;2023-06-01T05:16:05;13.02;;;5.65;;
62790;SDS011;48830;53.426;10.300;2023-06-01T05:18:32;13.35;;;5.93;;
62790;SDS011;48830;53.426;10.300;2023-06-01T05:20:58;13.63;;;5.75;;
62790;SDS011;48830;53.426;10.300;2023-06-01T05:23:25;13.73;;;6.00;;
62790;SDS011;48830;53.426;10.300;2023-06-01T05:25:51;12.43;;;5.00;;
62790;SDS011;48830;53.426;10.300;2023-06-01T05:28:20;16.85;;;5.50;;
62790;SDS011;48830;53.426;10.300;2023-06-01T05:30:46;15.07;;;5.95;;
62790;SDS011;48830;53.426;10.300;2023-06-01T05:33:12;12.60;;;5.75;;
62790;SDS011;48830;53.426;10.300;2023-06-01T05:35:38;11.50;;;5.85;;
62790;SDS011;48830;53.426;10.300;2023-06-01T05:38:05;14.63;;;6.00;;
62790;SDS011;48830;53.426;10.300;2023-06-01T05:40:30;13.98;;;5.72;;
62790;SDS011;48830;53.426;10.300;2023-06-01T05:42:56;11.88;;;4.88;;
62790;SDS011;48830;53.426;10.300;2023-06-01T05:45:21;14.98;;;5.85;;
62790;SDS011;48830;53.426;10.300;2023-06-01T05:47:47;14.10;;;5.93;;
62790;SDS011;48830;53.426;10.300;2023-06-01T05:50:12;16.25;;;5.63;;
62790;SDS011;48830;53.426;10.300;2023-06-01T05:52:38;17.65;;;5.00;;
62790;SDS011;48830;53.426;10.300;2023-06-01T05:55:04;11.68;;;4.75;;
62790;SDS011;48830;53.426;10.300;2023-06-01T05:57:30;11.88;;;4.93;;
62790;SDS011;48830;53.426;10.300;2023-06-01T05:59:55;12.40;;;5.00;;
62790;SDS011;48830;53.426;10.300;2023-06-01T06:02:21;12.75;;;5.28;;
62790;SDS011;48830;53.426;10.300;2023-06-01T06:04:46;12.07;;;5.22;;
62790;SDS011;48830;53.426;10.300;2023-06-01T06:07:12;16.02;;;5.53;;
62790;SDS011;48830;53.426;10.300;2023-06-01T06:09:37;11.52;;;5.40;;
62790;SDS011;48830;53.426;10.300;2023-06-01T06:12:03;14.60;;;5.38;;
62790;SDS011;48830;53.426;10.300;2023-06-01T06:14:29;11.98;;;5.35;;
62790;SDS011;48830;53.426;10.300;2023-06-01T06:16:54;14.00;;;4.78;;
62790;SDS011;48830;53.426;10.300;2023-06-01T06:19:21;13.07;;;5.60;;
62790;SDS011;48830;53.426;10.300;2023-06-01T06:21:46;13.30;;;5.63;;
62790;SDS011;48830;53.426;10.300;2023-06-01T06:24:12;14.50;;;6.03;;
62790;SDS011;48830;53.426;10.300;2023-06-01T06:26:37;13.05;;;5.80;;
62790;SDS011;48830;53.426;10.300;2023-06-01T06:29:02;12.57;;;5.43;;
62790;SDS011;48830;53.426;10.300;2023-06-01T06:31:28;13.73;;;5.68;;
62790;SDS011;48830;53.426;10.300;2023-06-01T06:33:53;15.40;;;5.60;;
62790;SDS011;48830;53.426;10.300;2023-06-01T06:36:19;17.30;;;5.70;;
62790;SDS011;48830;53.426;10.300;2023-06-01T06:38:44;13.82;;;5.72;;
62790;SDS011;48830;53.426;10.300;2023-06-01T06:41:10;13.75;;;5.20;;
62790;SDS011;48830;53.426;10.300;2023-06-01T06:43:36;12.10;;;4.47;;
62790;SDS011;48830;53.426;10.300;2023-06-01T06:46:02;14.50;;;4.88;;
62790;SDS011;48830;53.426;10.300;2023-06-01T06:48:27;15.20;;;5.05;;
62790;SDS011;48830;53.426;10.300;2023-06-01T06:50:53;10.88;;;4.38;;
62790;SDS011;48830;53.426;10.300;2023-06-01T06:53:18;10.55;;;4.30;;
62790;SDS011;48830;53.426;10.300;2023-06-01T06:55:44;10.52;;;4.43;;
62790;SDS011;48830;53.426;10.300;2023-06-01T06:58:10;11.63;;;4.65;;
62790;SDS011;48830;53.426;10.300;2023-06-01T07:00:36;11.20;;;3.95;;
62790;SDS011;48830;53.426;10.300;2023-06-01T07:03:02;11.02;;;4.40;;
62790;SDS011;48830;53.426;10.300;2023-06-01T07:05:28;11.88;;;4.47;;
62790;SDS011;48830;53.426;10.300;2023-06-01T07:07:54;16.52;;;4.25;;
62790;SDS011;48830;53.426;10.300;2023-06-01T07:10:20;11.80;;;4.18;;
62790;SDS011;48830;53.426;10.300;2023-06-01T07:12:45;16.90;;;4.63;;
62790;SDS011;48830;53.426;10.300;2023-06-01T07:15:10;9.90;;;4.18;;
62790;SDS011;48830;53.426;10.300;2023-06-01T07:17:36;10.50;;;3.97;;
62790;SDS011;48830;53.426;10.300;2023-06-01T07:20:02;12.85;;;4.35;;
62790;SDS011;48830;53.426;10.300;2023-06-01T07:22:34;11.80;;;4.32;;
62790;SDS011;48830;53.426;10.300;2023-06-01T07:25:00;12.32;;;4.20;;
62790;SDS011;48830;53.426;10.300;2023-06-01T07:27:25;19.08;;;4.38;;
62790;SDS011;48830;53.426;10.300;2023-06-01T07:29:51;12.63;;;4.00;;
62790;SDS011;48830;53.426;10.300;2023-06-01T07:32:23;16.08;;;4.53;;
62790;SDS011;48830;53.426;10.300;2023-06-01T07:34:50;13.52;;;4.80;;
62790;SDS011;48830;53.426;10.300;2023-06-01T07:37:16;10.02;;;4.13;;
62790;SDS011;48830;53.426;10.300;2023-06-01T07:39:47;12.73;;;4.53;;
62790;SDS011;48830;53.426;10.300;2023-06-01T07:42:13;13.52;;;3.97;;
62790;SDS011;48830;53.426;10.300;2023-06-01T07:44:38;9.38;;;3.83;;
62790;SDS011;48830;53.426;10.300;2023-06-01T07:47:04;10.15;;;3.85;;
62790;SDS011;48830;53.426;10.300;2023-06-01T07:49:29;12.82;;;3.88;;
62790;SDS011;48830;53.426;10.300;2023-06-01T07:51:55;8.43;;;3.55;;
62790;SDS011;48830;53.426;10.300;2023-06-01T07:54:21;12.77;;;4.05;;
62790;SDS011;48830;53.426;10.300;2023-06-01T07:56:47;10.15;;;3.80;;
62790;SDS011;48830;53.426;10.300;2023-06-01T07:59:12;12.35;;;4.05;;
62790;SDS011;48830;53.426;10.300;2023-06-01T08:01:38;14.57;;;4.07;;
62790;SDS011;48830;53.426;10.300;2023-06-01T08:04:03;10.32;;;3.80;;
62790;SDS011;48830;53.426;10.300;2023-06-01T08:06:29;10.30;;;4.13;;
62790;SDS011;48830;53.426;10.300;2023-06-01T08:09:00;8.85;;;3.20;;
62790;SDS011;48830;53.426;10.300;2023-06-01T08:11:26;11.80;;;3.60;;
62790;SDS011;48830;53.426;10.300;2023-06-01T08:13:52;11.63;;;3.90;;
62790;SDS011;48830;53.426;10.300;2023-06-01T08:16:20;9.93;;;3.72;;
62790;SDS011;48830;53.426;10.300;2023-06-01T08:18:46;13.43;;;3.83;;
62790;SDS011;48830;53.426;10.300;2023-06-01T08:21:11;13.60;;;3.63;;
62790;SDS011;48830;53.426;10.300;2023-06-01T08:23:37;10.68;;;3.58;;
62790;SDS011;48830;53.426;10.300;2023-06-01T08:26:02;9.00;;;3.58;;
62790;SDS011;48830;53.426;10.300;2023-06-01T08:28:28;17.55;;;3.90;;
62790;SDS011;48830;53.426;10.300;2023-06-01T08:30:53;13.52;;;3.42;;
62790;SDS011;48830;53.426;10.300;2023-06-01T08:33:26;10.70;;;3.15;;
62790;SDS011;48830;53.426;10.300;2023-06-01T08:35:52;10.85;;;3.10;;
62790;SDS011;48830;53.426;10.300;2023-06-01T08:38:18;8.63;;;3.05;;
62790;SDS011;48830;53.426;10.300;2023-06-01T08:40:44;13.30;;;3.47;;
62790;SDS011;48830;53.426;10.300;2023-06-01T08:43:20;16.00;;;3.22;;
62790;SDS011;48830;53.426;10.300;2023-06-01T08:45:47;8.57;;;3.00;;
62790;SDS011;48830;53.426;10.300;2023-06-01T08:48:17;10.38;;;3.25;;
62790;SDS011;48830;53.426;10.300;2023-06-01T08:50:45;13.70;;;3.25;;
62790;SDS011;48830;53.426;10.300;2023-06-01T08:53:14;12.85;;;3.05;;
62790;SDS011;48830;53.426;10.300;2023-06-01T08:55:44;16.88;;;3.30;;
62790;SDS011;48830;53.426;10.300;2023-06-01T08:58:11;16.77;;;3.83;;
62790;SDS011;48830;53.426;10.300;2023-06-01T09:00:38;6.43;;;3.10;;
62790;SDS011;48830;53.426;10.300;2023-06-01T09:03:06;8.80;;;3.25;;
62790;SDS011;48830;53.426;10.300;2023-06-01T09:05:31;10.27;;;2.88;;
62790;SDS011;48830;53.426;10.300;2023-06-01T09:07:57;10.50;;;3.40;;
62790;SDS011;48830;53.426;10.300;2023-06-01T09:10:23;12.65;;;3.20;;
62790;SDS011;48830;53.426;10.300;2023-06-01T09:12:53;12.85;;;3.67;;
62790;SDS011;48830;53.426;10.300;2023-06-01T09:15:20;9.23;;;3.03;;
62790;SDS011;48830;53.426;10.300;2023-06-01T09:17:47;11.63;;;3.40;;
62790;SDS011;48830;53.426;10.300;2023-06-01T09:20:23;10.02;;;3.20;;
62790;SDS011;48830;53.426;10.300;2023-06-01T09:22:53;11.02;;;3.03;;
62790;SDS011;48830;53.426;10.300;2023-06-01T09:25:29;10.23;;;3.05;;
62790;SDS011;48830;53.426;10.300;2023-06-01T09:27:57;8.57;;;2.88;;
62790;SDS011;48830;53.426;10.300;2023-06-01T09:30:24;10.27;;;2.90;;
62790;SDS011;48830;53.426;10.300;2023-06-01T09:33:11;11.32;;;3.00;;
62790;SDS011;48830;53.426;10.300;2023-06-01T09:35:42;8.82;;;2.92;;
62790;SDS011;48830;53.426;10.300;2023-06-01T09:38:09;6.40;;;2.28;;
62790;SDS011;48830;53.426;10.300;2023-06-01T09:40:36;5.97;;;2.55;;
62790;SDS011;48830;53.426;10.300;2023-06-01T09:43:06;12.98;;;3.05;;
62790;SDS011;48830;53.426;10.300;2023-06-01T09:45:44;6.40;;;2.97;;
62790;SDS011;48830;53.426;10.300;2023-06-01T09:48:17;8.63;;;2.63;;
62790;SDS011;48830;53.426;10.300;2023-06-01T09:50:43;7.60;;;2.63;;
62790;SDS011;48830;53.426;10.300;2023-06-01T09:53:10;7.05;;;2.35;;
62790;SDS011;48830;53.426;10.300;2023-06-01T09:55:35;13.20;;;3.58;;
62790;SDS011;48830;53.426;10.300;2023-06-01T09:58:17;10.70;;;2.70;;
62790;SDS011;48830;53.426;10.300;2023-06-01T10:00:44;5.75;;;2.33;;
62790;SDS011;48830;53.426;10.300;2023-06-01T10:03:11;10.05;;;3.40;;
62790;SDS011;48830;53.426;10.300;2023-06-01T10:05:38;10.38;;;3.22;;
62790;SDS011;48830;53.426;10.300;2023-06-01T10:08:03;8.98;;;2.92;;
62790;SDS011;48830;53.426;10.300;2023-06-01T10:10:29;8.32;;;2.85;;
62790;SDS011;48830;53.426;10.300;2023-06-01T10:12:56;6.80;;;2.65;;
62790;SDS011;48830;53.426;10.300;2023-06-01T10:15:22;8.93;;;2.85;;
62790;SDS011;48830;53.426;10.300;2023-06-01T10:17:48;10.38;;;2.72;;
62790;SDS011;48830;53.426;10.300;2023-06-01T10:20:14;10.20;;;2.92;;
62790;SDS011;48830;53.426;10.300;2023-06-01T10:22:41;12.75;;;2.88;;
62790;SDS011;48830;53.426;10.300;2023-06-01T10:25:07;10.57;;;2.70;;
62790;SDS011;48830;53.426;10.300;2023-06-01T10:27:38;12.93;;;3.42;;
62790;SDS011;48830;53.426;10.300;2023-06-01T10:30:07;9.68;;;3.25;;
62790;SDS011;48830;53.426;10.300;2023-06-01T10:35:06;10.57;;;2.97;;
62790;SDS011;48830;53.426;10.300;2023-06-01T10:37:32;9.30;;;2.90;;
62790;SDS011;48830;53.426;10.300;2023-06-01T10:42:39;9.63;;;2.88;;
62790;SDS011;48830;53.426;10.300;2023-06-01T10:45:06;11.18;;;3.38;;
62790;SDS011;48830;53.426;10.300;2023-06-01T10:52:23;11.45;;;3.58;;
62790;SDS011;48830;53.426;10.300;2023-06-01T10:57:36;10.73;;;2.92;;
62790;SDS011;48830;53.426;10.300;2023-06-01T11:10:58;13.38;;;3.60;;
62790;SDS011;48830;53.426;10.300;2023-06-01T11:13:31;10.68;;;2.95;;
62790;SDS011;48830;53.426;10.300;2023-06-01T11:18:44;13.13;;;3.60;;
62790;SDS011;48830;53.426;10.300;2023-06-01T11:21:15;10.60;;;3.40;;
62790;SDS011;48830;53.426;10.300;2023-06-01T11:23:41;11.98;;;3.58;;
62790;SDS011;48830;53.426;10.300;2023-06-01T11:26:07;8.93;;;3.17;;
62790;SDS011;48830;53.426;10.300;2023-06-01T11:28:33;11.00;;;4.13;;
62790;SDS011;48830;53.426;10.300;2023-06-01T11:31:00;11.45;;;3.33;;
62790;SDS011;48830;53.426;10.300;2023-06-01T11:33:29;10.77;;;3.13;;
62790;SDS011;48830;53.426;10.300;2023-06-01T11:36:00;12.27;;;2.83;;
62790;SDS011;48830;53.426;10.300;2023-06-01T11:38:39;6.88;;;2.85;;
62790;SDS011;48830;53.426;10.300;2023-06-01T11:41:06;8.65;;;2.97;;
62790;SDS011;48830;53.426;10.300;2023-06-01T11:43:33;14.05;;;3.60;;
62790;SDS011;48830;53.426;10.300;2023-06-01T11:46:05;9.18;;;2.92;;
62790;SDS011;48830;53.426;10.300;2023-06-01T11:48:32;8.27;;;2.60;;
62790;SDS011;48830;53.426;10.300;2023-06-01T11:50:59;10.25;;;2.60;;
62790;SDS011;48830;53.426;10.300;2023-06-01T11:53:26;7.22;;;2.45;;
62790;SDS011;48830;53.426;10.300;2023-06-01T11:55:53;15.82;;;3.20;;
62790;SDS011;48830;53.426;10.300;2023-06-01T11:58:29;15.50;;;2.97;;
62790;SDS011;48830;53.426;10.300;2023-06-01T12:00:58;10.52;;;2.75;;
62790;SDS011;48830;53.426;10.300;2023-06-01T12:03:25;10.10;;;2.85;;
62790;SDS011;48830;53.426;10.300;2023-06-01T12:05:50;9.02;;;2.70;;
62790;SDS011;48830;53.426;10.300;2023-06-01T12:08:17;11.77;;;3.00;;
62790;SDS011;48830;53.426;10.300;2023-06-01T12:10:46;10.40;;;3.20;;
62790;SDS011;48830;53.426;10.300;2023-06-01T12:13:16;9.00;;;3.13;;
62790;SDS011;48830;53.426;10.300;2023-06-01T12:15:43;11.57;;;2.83;;
62790;SDS011;48830;53.426;10.300;2023-06-01T12:18:10;10.93;;;2.95;;
62790;SDS011;48830;53.426;10.300;2023-06-01T12:20:36;8.02;;;2.97;;
62790;SDS011;48830;53.426;10.300;2023-06-01T12:25:34;8.05;;;2.47;;
62790;SDS011;48830;53.426;10.300;2023-06-01T12:28:03;9.30;;;2.97;;
62790;SDS011;48830;53.426;10.300;2023-06-01T12:30:30;9.05;;;2.55;;
62790;SDS011;48830;53.426;10.300;2023-06-01T12:32:56;9.50;;;2.42;;
62790;SDS011;48830;53.426;10.300;2023-06-01T12:35:22;7.72;;;2.33;;
62790;SDS011;48830;53.426;10.300;2023-06-01T12:40:32;9.27;;;2.80;;
62790;SDS011;48830;53.426;10.300;2023-06-01T12:42:59;7.50;;;2.65;;
62790;SDS011;48830;53.426;10.300;2023-06-01T12:45:24;11.02;;;2.80;;
62790;SDS011;48830;53.426;10.300;2023-06-01T12:47:50;11.60;;;2.80;;
62790;SDS011;48830;53.426;10.300;2023-06-01T12:50:15;8.13;;;2.53;;
62790;SDS011;48830;53.426;10.300;2023-06-01T12:52:41;7.45;;;2.35;;
62790;SDS011;48830;53.426;10.300;2023-06-01T12:55:07;6.45;;;2.15;;
62790;SDS011;48830;53.426;10.300;2023-06-01T12:57:33;7.57;;;2.00;;
62790;SDS011;48830;53.426;10.300;2023-06-01T13:00:00;5.43;;;2.08;;
62790;SDS011;48830;53.426;10.300;2023-06-01T13:02:25;8.18;;;2.38;;
62790;SDS011;48830;53.426;10.300;2023-06-01T13:04:51;7.57;;;2.28;;
62790;SDS011;48830;53.426;10.300;2023-06-01T13:07:18;8.93;;;2.30;;
62790;SDS011;48830;53.426;10.300;2023-06-01T13:09:48;8.43;;;2.53;;
62790;SDS011;48830;53.426;10.300;2023-06-01T13:12:14;8.40;;;2.35;;
62790;SDS011;48830;53.426;10.300;2023-06-01T13:14:39;9.80;;;2.30;;
62790;SDS011;48830;53.426;10.300;2023-06-01T13:17:05;9.45;;;2.70;;
62790;SDS011;48830;53.426;10.300;2023-06-01T13:19:31;10.43;;;2.25;;
62790;SDS011;48830;53.426;10.300;2023-06-01T13:21:56;10.32;;;2.42;;
62790;SDS011;48830;53.426;10.300;2023-06-01T13:24:22;11.18;;;2.78;;
62790;SDS011;48830;53.426;10.300;2023-06-01T13:26:48;6.97;;;2.35;;
62790;SDS011;48830;53.426;10.300;2023-06-01T13:29:13;6.35;;;1.85;;
62790;SDS011;48830;53.426;10.300;2023-06-01T13:31:39;9.13;;;2.25;;
62790;SDS011;48830;53.426;10.300;2023-06-01T13:34:04;8.63;;;2.50;;
62790;SDS011;48830;53.426;10.300;2023-06-01T13:36:30;11.13;;;2.42;;
62790;SDS011;48830;53.426;10.300;2023-06-01T13:38:56;10.38;;;2.70;;
62790;SDS011;48830;53.426;10.300;2023-06-01T13:41:22;10.07;;;2.20;;
62790;SDS011;48830;53.426;10.300;2023-06-01T13:43:48;9.02;;;2.28;;
62790;SDS011;48830;53.426;10.300;2023-06-01T13:46:13;8.82;;;2.60;;
62790;SDS011;48830;53.426;10.300;2023-06-01T13:48:39;10.18;;;2.58;;
62790;SDS011;48830;53.426;10.300;2023-06-01T13:51:07;10.20;;;2.15;;
62790;SDS011;48830;53.426;10.300;2023-06-01T13:53:33;12.45;;;2.20;;
62790;SDS011;48830;53.426;10.300;2023-06-01T13:56:01;7.07;;;1.92;;
62790;SDS011;48830;53.426;10.300;2023-06-01T13:58:28;11.30;;;2.45;;
62790;SDS011;48830;53.426;10.300;2023-06-01T14:00:53;12.75;;;2.47;;
62790;SDS011;48830;53.426;10.300;2023-06-01T14:03:19;11.32;;;2.25;;
62790;SDS011;48830;53.426;10.300;2023-06-01T14:05:45;9.68;;;2.50;;
62790;SDS011;48830;53.426;10.300;2023-06-01T14:08:10;8.60;;;2.13;;
62790;SDS011;48830;53.426;10.300;2023-06-01T14:10:36;8.52;;;2.10;;
62790;SDS011;48830;53.426;10.300;2023-06-01T14:13:01;10.52;;;2.30;;
62790;SDS011;48830;53.426;10.300;2023-06-01T14:15:27;9.38;;;2.38;;
62790;SDS011;48830;53.426;10.300;2023-06-01T14:17:53;10.25;;;2.42;;
62790;SDS011;48830;53.426;10.300;2023-06-01T14:20:18;8.27;;;2.50;;
62790;SDS011;48830;53.426;10.300;2023-06-01T14:22:44;9.30;;;2.38;;
62790;SDS011;48830;53.426;10.300;2023-06-01T14:25:10;8.68;;;2.38;;
62790;SDS011;48830;53.426;10.300;2023-06-01T14:27:38;8.63;;;2.33;;
62790;SDS011;48830;53.426;10.300;2023-06-01T14:30:05;10.52;;;2.30;;
62790;SDS011;48830;53.426;10.300;2023-06-01T14:32:31;12.25;;;2.30;;
62790;SDS011;48830;53.426;10.300;2023-06-01T14:34:56;10.68;;;2.30;;
62790;SDS011;48830;53.426;10.300;2023-06-01T14:37:21;9.85;;;2.20;;
62790;SDS011;48830;53.426;10.300;2023-06-01T14:39:47;9.73;;;2.45;;
62790;SDS011;48830;53.426;10.300;2023-06-01T14:42:14;11.65;;;2.88;;
62790;SDS011;48830;53.426;10.300;2023-06-01T14:44:40;8.52;;;2.47;;
62790;SDS011;48830;53.426;10.300;2023-06-01T14:47:06;11.18;;;2.55;;
62790;SDS011;48830;53.426;10.300;2023-06-01T14:49:31;9.77;;;2.67;;
62790;SDS011;48830;53.426;10.300;2023-06-01T14:51:57;13.85;;;2.60;;
62790;SDS011;48830;53.426;10.300;2023-06-01T14:54:22;11.85;;;2.97;;
62790;SDS011;48830;53.426;10.300;2023-06-01T14:56:48;12.88;;;3.00;;
62790;SDS011;48830;53.426;10.300;2023-06-01T14:59:14;11.32;;;2.67;;
62790;SDS011;48830;53.426;10.300;2023-06-01T15:01:39;12.00;;;2.72;;
62790;SDS011;48830;53.426;10.300;2023-06-01T15:04:06;10.32;;;2.47;;